Dades meteomassalio
Diari Summary for Juliol 31, 2017 Units:  Metric    English   Both
« Previous Day
Next Day »
Diari Semanal Mensual Anual Personalitzat
  Maxima: Minima: Mijana:
Temperatura: 37.6 °C 18.6 °C 28.2 °C
Rosada: 21.2 °C 12.1 °C 16.7 °C
Humitat: 81 % 24 % 54 %
Velocitat del vent: 42.6 km/h 0.0 km/h 9.9 km/h
Racha vent: 42.6 km/h - -
Vent:- - SE
Pressio: 1010.0 hPa 1004.3 hPa -
Pluja: 0.0 mm    
Historical Graphs
 
 
Tabular Data for Juliol 31, 2017
Time Temperature Dew Point Pressure Wind Wind Speed Wind Gust Humidity Rainfall Rate (Hourly) solar Conditions
00:03 26.2 °C 18.6 °C 1008.0 hPa Calm     63 % 0.0 mm 0.0 W/m2 CLR
00:09 26.1 °C 19.0 °C 1008.0 hPa Calm     65 % 0.0 mm 0.0 W/m2 CLR
00:14 26.0 °C 18.9 °C 1008.4 hPa Calm     65 % 0.0 mm 0.0 W/m2 CLR
00:19 25.9 °C 18.8 °C 1008.0 hPa Calm     65 % 0.0 mm 0.0 W/m2 CLR
00:24 25.9 °C 19.1 °C 1008.0 hPa Calm     66 % 0.0 mm 0.0 W/m2 CLR
00:29 25.8 °C 18.9 °C 1008.0 hPa Calm     66 % 0.0 mm 0.0 W/m2 CLR
00:34 25.7 °C 18.9 °C 1008.0 hPa Calm     66 % 0.0 mm 0.0 W/m2 CLR
00:39 25.7 °C 18.7 °C 1008.0 hPa Calm     65 % 0.0 mm 0.0 W/m2 CLR
00:44 25.7 °C 18.9 °C 1008.0 hPa Calm     66 % 0.0 mm 0.0 W/m2 CLR
00:49 25.7 °C 18.9 °C 1008.0 hPa Calm     66 % 0.0 mm 0.0 W/m2 CLR
00:54 25.8 °C 18.7 °C 1008.0 hPa Calm     65 % 0.0 mm 0.0 W/m2 CLR
00:59 25.8 °C 18.7 °C 1008.0 hPa Calm     65 % 0.0 mm 0.0 W/m2 CLR
01:04 25.8 °C 18.9 °C 1008.0 hPa Calm     66 % 0.0 mm 0.0 W/m2 CLR
01:09 25.7 °C 19.1 °C 1008.0 hPa ENE 5.6 km/h 5.6 km/h 67 % 0.0 mm 0.0 W/m2 CLR
01:14 25.7 °C 19.1 °C 1008.0 hPa ENE 3.7 km/h   67 % 0.0 mm 0.0 W/m2 CLR
01:19 25.7 °C 19.1 °C 1008.0 hPa Calm     67 % 0.0 mm 0.0 W/m2 CLR
01:24 25.6 °C 19.0 °C 1008.4 hPa North 8.0 km/h 8.0 km/h 67 % 0.0 mm 0.0 W/m2 CLR
01:29 25.6 °C 19.0 °C 1008.7 hPa NNW 16.7 km/h 16.7 km/h 67 % 0.0 mm 0.0 W/m2 CLR
01:34 25.6 °C 18.6 °C 1008.7 hPa Calm     65 % 0.0 mm 0.0 W/m2 CLR
01:35 25.6 °C 18.6 °C 1008.7 hPa Calm     65 % 0.0 mm 0.0 W/m2 CLR
01:39 25.8 °C 19.2 °C 1008.7 hPa NNE 8.0 km/h 8.0 km/h 67 % 0.0 mm 0.0 W/m2 CLR
01:44 25.6 °C 19.4 °C 1009.0 hPa NNW 11.3 km/h 11.3 km/h 69 % 0.0 mm 0.0 W/m2 CLR
01:49 25.4 °C 19.3 °C 1008.7 hPa ENE 3.7 km/h   69 % 0.0 mm 0.0 W/m2 CLR
01:54 25.3 °C 19.4 °C 1008.7 hPa Calm     70 % 0.0 mm 0.0 W/m2 CLR
01:59 25.2 °C 19.6 °C 1008.7 hPa Calm     71 % 0.0 mm 0.0 W/m2 CLR
02:04 25.0 °C 19.8 °C 1008.7 hPa NNE 5.6 km/h 5.6 km/h 73 % 0.0 mm 0.0 W/m2 CLR
02:09 24.8 °C 19.9 °C 1008.7 hPa North 3.2 km/h 3.2 km/h 74 % 0.0 mm 0.0 W/m2 CLR
02:14 24.7 °C 19.9 °C 1009.0 hPa NW 6.4 km/h 6.4 km/h 75 % 0.0 mm 0.0 W/m2 CLR
02:19 24.6 °C 19.7 °C 1009.0 hPa Calm     74 % 0.0 mm 0.0 W/m2 CLR
02:24 24.6 °C 19.7 °C 1009.0 hPa Calm     74 % 0.0 mm 0.0 W/m2 CLR
02:29 24.6 °C 19.7 °C 1009.0 hPa Calm     74 % 0.0 mm 0.0 W/m2 CLR
02:34 24.7 °C 19.7 °C 1009.0 hPa Calm     74 % 0.0 mm 0.0 W/m2 CLR
02:39 24.6 °C 19.4 °C 1009.4 hPa WNW 9.3 km/h 9.3 km/h 73 % 0.0 mm 0.0 W/m2 CLR
02:44 24.7 °C 19.8 °C 1009.4 hPa WNW 7.4 km/h 7.4 km/h 74 % 0.0 mm 0.0 W/m2 CLR
02:49 24.8 °C 20.1 °C 1009.4 hPa WNW 16.7 km/h 16.7 km/h 75 % 0.0 mm 0.0 W/m2 CLR
02:54 24.8 °C 20.1 °C 1009.4 hPa Calm     75 % 0.0 mm 0.0 W/m2 CLR
02:59 24.8 °C 20.3 °C 1009.4 hPa Calm     76 % 0.0 mm 0.0 W/m2 CLR
03:04 24.7 °C 20.4 °C 1009.4 hPa Calm     77 % 0.0 mm 0.0 W/m2 CLR
03:09 24.6 °C 20.3 °C 1009.4 hPa Calm     77 % 0.0 mm 0.0 W/m2 CLR
03:14 24.5 °C 20.4 °C 1009.4 hPa Calm     78 % 0.0 mm 0.0 W/m2 CLR
03:19 24.4 °C 20.1 °C 1009.4 hPa WNW 11.1 km/h 11.1 km/h 77 % 0.0 mm 0.0 W/m2 CLR
03:24 24.3 °C 19.8 °C 1009.4 hPa West 7.4 km/h 7.4 km/h 76 % 0.0 mm 0.0 W/m2 CLR
03:29 24.2 °C 19.3 °C 1009.4 hPa WSW 5.6 km/h 5.6 km/h 74 % 0.0 mm 0.0 W/m2 CLR
03:34 24.1 °C 18.7 °C 1009.4 hPa WNW 6.4 km/h 6.4 km/h 72 % 0.0 mm 0.0 W/m2 CLR
03:39 24.0 °C 18.7 °C 1009.4 hPa Calm     72 % 0.0 mm 0.0 W/m2 CLR
03:44 23.9 °C 18.1 °C 1009.4 hPa WNW 7.4 km/h 7.4 km/h 70 % 0.0 mm 0.0 W/m2 CLR
03:49 23.8 °C 17.7 °C 1009.4 hPa Calm     69 % 0.0 mm 0.0 W/m2 CLR
03:54 23.7 °C 17.7 °C 1009.4 hPa Calm     69 % 0.0 mm 0.0 W/m2 CLR
03:59 23.6 °C 17.6 °C 1009.7 hPa Calm     69 % 0.0 mm 0.0 W/m2 CLR
04:00 23.5 °C 17.5 °C 1009.7 hPa Calm     69 % 0.0 mm 0.0 W/m2 CLR
04:05 23.4 °C 17.2 °C 1009.7 hPa Calm     68 % 0.0 mm 0.0 W/m2 CLR
04:10 23.3 °C 17.1 °C 1009.7 hPa Calm     68 % 0.0 mm 0.0 W/m2 CLR
04:16 23.3 °C 16.8 °C 1009.7 hPa Calm     67 % 0.0 mm 0.0 W/m2 CLR
04:21 23.2 °C 16.8 °C 1009.7 hPa Calm     67 % 0.0 mm 0.0 W/m2 CLR
04:25 23.1 °C 16.7 °C 1009.7 hPa Calm     67 % 0.0 mm 0.0 W/m2 CLR
04:31 22.9 °C 16.7 °C 1009.7 hPa Calm     68 % 0.0 mm 0.0 W/m2 CLR
04:36 22.8 °C 16.8 °C 1009.7 hPa Calm     69 % 0.0 mm 0.0 W/m2 CLR
04:41 22.7 °C 16.7 °C 1009.7 hPa Calm     69 % 0.0 mm 0.0 W/m2 CLR
04:46 22.6 °C 16.6 °C 1009.7 hPa Calm     69 % 0.0 mm 0.0 W/m2 CLR
04:51 22.4 °C 16.7 °C 1009.7 hPa Calm     70 % 0.0 mm 0.0 W/m2 CLR
04:56 22.3 °C 16.8 °C 1009.7 hPa Calm     71 % 0.0 mm 0.0 W/m2 CLR
05:01 22.1 °C 16.6 °C 1009.7 hPa Calm     71 % 0.0 mm 0.0 W/m2 CLR
05:06 21.9 °C 16.4 °C 1009.7 hPa Calm     71 % 0.0 mm 0.0 W/m2 CLR
05:11 21.8 °C 16.3 °C 1009.7 hPa Calm     71 % 0.0 mm 0.0 W/m2 CLR
05:16 21.7 °C 16.4 °C 1009.7 hPa Calm     72 % 0.0 mm 0.0 W/m2 CLR
05:21 21.5 °C 16.4 °C 1009.7 hPa Calm     73 % 0.0 mm 0.0 W/m2 CLR
05:26 21.4 °C 16.3 °C 1009.7 hPa Calm     73 % 0.0 mm 0.0 W/m2 CLR
05:31 21.3 °C 16.2 °C 1009.7 hPa Calm     73 % 0.0 mm 0.0 W/m2 CLR
05:36 21.1 °C 16.3 °C 1009.7 hPa Calm     74 % 0.0 mm 0.0 W/m2 CLR
05:41 21.0 °C 16.2 °C 1009.7 hPa Calm     74 % 0.0 mm 0.0 W/m2 CLR
05:46 20.8 °C 16.0 °C 1009.7 hPa Calm     74 % 0.0 mm 0.0 W/m2 CLR
05:51 20.6 °C 16.0 °C 1009.7 hPa Calm     75 % 0.0 mm 0.0 W/m2 CLR
05:56 20.5 °C 15.9 °C 1009.7 hPa Calm     75 % 0.0 mm 0.0 W/m2 CLR
06:01 20.3 °C 15.9 °C 1009.7 hPa Calm     76 % 0.0 mm 0.0 W/m2 CLR
06:06 20.1 °C 15.7 °C 1009.7 hPa Calm     76 % 0.0 mm 0.0 W/m2 CLR
06:11 20.0 °C 15.7 °C 1009.7 hPa Calm     76 % 0.0 mm 0.0 W/m2 CLR
06:16 19.9 °C 15.7 °C 1009.7 hPa Calm     77 % 0.0 mm 0.0 W/m2 CLR
06:21 19.8 °C 15.6 °C 1009.7 hPa Calm     77 % 0.0 mm 0.0 W/m2 CLR
06:26 19.7 °C 15.6 °C 1009.7 hPa Calm     77 % 0.0 mm 0.0 W/m2 CLR
06:31 19.6 °C 15.4 °C 1009.7 hPa Calm     77 % 0.0 mm 0.0 W/m2 CLR
06:36 19.5 °C 15.6 °C 1009.7 hPa Calm     78 % 0.0 mm 0.0 W/m2 CLR
06:41 19.4 °C 15.4 °C 1009.7 hPa Calm     78 % 0.0 mm 0.0 W/m2 CLR
06:46 19.3 °C 15.3 °C 1009.7 hPa Calm     78 % 0.0 mm 0.0 W/m2 OVC
06:51 19.1 °C 15.2 °C 1009.7 hPa Calm     78 % 0.0 mm 0.0 W/m2 OVC
06:56 18.9 °C 15.2 °C 1009.7 hPa Calm     79 % 0.0 mm 0.0 W/m2 OVC
06:57 18.9 °C 15.2 °C 1010.0 hPa Calm     79 % 0.0 mm 0.0 W/m2 OVC
07:02 18.8 °C 15.1 °C 1010.0 hPa Calm     79 % 0.0 mm 7.0 W/m2 BKN
07:07 18.7 °C 15.2 °C 1010.0 hPa Calm     80 % 0.0 mm 11.0 W/m2 BKN
07:12 18.7 °C 15.2 °C 1010.0 hPa Calm     80 % 0.0 mm 14.0 W/m2 BKN
07:17 18.6 °C 15.3 °C 1010.0 hPa Calm     81 % 0.0 mm 18.0 W/m2 BKN
07:22 18.6 °C 15.1 °C 1010.0 hPa Calm     80 % 0.0 mm 23.0 W/m2 BKN
07:27 18.6 °C 15.1 °C 1010.0 hPa Calm     80 % 0.0 mm 26.0 W/m2 BKN
07:32 18.6 °C 15.1 °C 1010.0 hPa Calm     80 % 0.0 mm 33.0 W/m2 BKN
07:37 18.7 °C 15.2 °C 1010.0 hPa Calm     80 % 0.0 mm 35.0 W/m2 BKN
07:42 18.8 °C 15.3 °C 1010.0 hPa Calm     80 % 0.0 mm 47.0 W/m2 SCT
07:47 18.8 °C 15.3 °C 1010.0 hPa Calm     80 % 0.0 mm 58.0 W/m2 SCT
07:52 18.9 °C 15.4 °C 1010.0 hPa Calm     80 % 0.0 mm 72.0 W/m2 FEW
07:57 19.0 °C 15.3 °C 1010.0 hPa Calm     79 % 0.0 mm 83.0 W/m2 FEW
08:02 19.2 °C 15.7 °C 1010.0 hPa Calm     80 % 0.0 mm 95.0 W/m2 FEW
08:07 19.4 °C 15.5 °C 1010.0 hPa Calm     78 % 0.0 mm 111.0 W/m2 CLR
08:12 19.7 °C 15.6 °C 1010.0 hPa Calm     77 % 0.0 mm 127.0 W/m2 CLR
08:17 19.9 °C 15.8 °C 1010.0 hPa Calm     77 % 0.0 mm 144.0 W/m2 CLR
08:22 20.2 °C 16.3 °C 1010.0 hPa Calm     78 % 0.0 mm 134.0 W/m2 CLR
08:27 20.5 °C 16.3 °C 1010.0 hPa Calm     77 % 0.0 mm 174.0 W/m2 CLR
08:32 20.9 °C 16.5 °C 1010.0 hPa Calm     76 % 0.0 mm 193.0 W/m2 CLR
08:37 21.2 °C 16.6 °C 1010.0 hPa Calm     75 % 0.0 mm 211.0 W/m2 CLR
08:42 21.3 °C 16.5 °C 1010.0 hPa Calm     74 % 0.0 mm 223.0 W/m2 CLR
08:47 21.6 °C 16.3 °C 1010.0 hPa Calm     72 % 0.0 mm 211.0 W/m2 CLR
08:52 21.8 °C 16.5 °C 1010.0 hPa Calm     72 % 0.0 mm 251.0 W/m2 CLR
08:57 22.1 °C 16.6 °C 1010.0 hPa Calm     71 % 0.0 mm 264.0 W/m2 CLR
09:02 22.4 °C 16.7 °C 1010.0 hPa Calm     70 % 0.0 mm 281.0 W/m2 CLR
09:07 22.8 °C 16.8 °C 1010.0 hPa Calm     69 % 0.0 mm 299.0 W/m2 CLR
09:12 23.1 °C 16.9 °C 1010.0 hPa Calm     68 % 0.0 mm 315.0 W/m2 CLR
09:17 23.3 °C 16.8 °C 1010.0 hPa Calm     67 % 0.0 mm 330.0 W/m2 CLR
09:22 23.3 °C 16.8 °C 1010.0 hPa Calm     67 % 0.0 mm 343.0 W/m2 CLR
09:27 23.6 °C 16.9 °C 1010.0 hPa Calm     66 % 0.0 mm 359.0 W/m2 CLR
09:32 23.9 °C 16.9 °C 1010.0 hPa Calm     65 % 0.0 mm 374.0 W/m2 CLR
09:37 24.2 °C 17.0 °C 1010.0 hPa Calm     64 % 0.0 mm 387.0 W/m2 CLR
09:42 24.4 °C 16.9 °C 1010.0 hPa Calm     63 % 0.0 mm 408.0 W/m2 CLR
09:47 24.3 °C 16.8 °C 1010.0 hPa Calm     63 % 0.0 mm 272.0 W/m2 CLR
09:52 24.3 °C 16.8 °C 1010.0 hPa Calm     63 % 0.0 mm 165.0 W/m2 CLR
09:57 24.5 °C 17.0 °C 1010.0 hPa Calm     63 % 0.0 mm 454.0 W/m2 CLR
10:02 24.5 °C 17.0 °C 1010.0 hPa ENE 7.4 km/h 7.4 km/h 63 % 0.0 mm 471.0 W/m2 CLR
10:07 24.6 °C 17.1 °C 1009.7 hPa ENE 3.7 km/h 3.7 km/h 63 % 0.0 mm 483.0 W/m2 CLR
10:12 24.8 °C 17.3 °C 1009.7 hPa Calm   0.3 km/h 63 % 0.0 mm 497.0 W/m2 CLR
10:17 25.1 °C 17.3 °C 1009.7 hPa NE 5.6 km/h 5.6 km/h 62 % 0.0 mm 513.0 W/m2 CLR
10:22 25.1 °C 17.0 °C 1009.7 hPa NE 5.6 km/h 5.6 km/h 61 % 0.0 mm 526.0 W/m2 CLR
10:27 25.1 °C 17.0 °C 1009.7 hPa ENE 5.6 km/h   61 % 0.0 mm 548.0 W/m2 CLR
10:32 25.1 °C 17.3 °C 1009.7 hPa Calm     62 % 0.0 mm 563.0 W/m2 CLR
10:37 25.3 °C 17.5 °C 1009.7 hPa ENE 6.4 km/h 6.4 km/h 62 % 0.0 mm 578.0 W/m2 CLR
10:42 25.8 °C 17.7 °C 1009.7 hPa NE 5.6 km/h 5.6 km/h 61 % 0.0 mm 592.0 W/m2 CLR
10:47 26.1 °C 18.0 °C 1009.7 hPa Calm     61 % 0.0 mm 606.0 W/m2 CLR
10:52 26.1 °C 17.4 °C 1009.7 hPa Calm     59 % 0.0 mm 621.0 W/m2 CLR
10:54 26.2 °C 17.8 °C 1009.7 hPa Calm     60 % 0.0 mm 624.0 W/m2 CLR
10:59 26.4 °C 17.8 °C 1009.7 hPa Calm     59 % 0.0 mm 640.0 W/m2 CLR
11:04 26.6 °C 17.9 °C 1009.7 hPa ENE 9.3 km/h 9.3 km/h 59 % 0.0 mm 652.0 W/m2 CLR
11:09 26.6 °C 17.9 °C 1009.4 hPa ENE 9.7 km/h 9.7 km/h 59 % 0.0 mm 661.0 W/m2 CLR
11:14 26.7 °C 18.1 °C 1009.4 hPa Calm     59 % 0.0 mm 673.0 W/m2 CLR
11:19 26.9 °C 18.2 °C 1009.4 hPa NE 8.0 km/h 8.0 km/h 59 % 0.0 mm 680.0 W/m2 CLR
11:24 27.2 °C 18.5 °C 1009.4 hPa NE 8.0 km/h 8.0 km/h 59 % 0.0 mm 698.0 W/m2 CLR
11:29 27.3 °C 18.3 °C 1009.4 hPa Calm     58 % 0.0 mm 708.0 W/m2 CLR
11:34 27.5 °C 18.5 °C 1009.4 hPa NE 7.4 km/h 7.4 km/h 58 % 0.0 mm 719.0 W/m2 CLR
11:39 27.7 °C 18.7 °C 1009.4 hPa Calm     58 % 0.0 mm 729.0 W/m2 CLR
11:44 28.0 °C 18.7 °C 1009.4 hPa Calm     57 % 0.0 mm 742.0 W/m2 CLR
11:49 28.1 °C 18.8 °C 1009.0 hPa NE 9.7 km/h 9.7 km/h 57 % 0.0 mm 751.0 W/m2 CLR
11:54 28.1 °C 18.8 °C 1009.0 hPa ENE 11.1 km/h 11.1 km/h 57 % 0.0 mm 761.0 W/m2 CLR
11:59 28.1 °C 18.8 °C 1009.0 hPa East 5.6 km/h 5.6 km/h 57 % 0.0 mm 770.0 W/m2 CLR
12:04 28.1 °C 19.1 °C 1009.0 hPa ENE 14.8 km/h 14.8 km/h 58 % 0.0 mm 779.0 W/m2 CLR
12:09 28.2 °C 19.1 °C 1009.0 hPa East 1.9 km/h   58 % 0.0 mm 789.0 W/m2 CLR
12:14 28.2 °C 19.1 °C 1009.0 hPa ENE 11.1 km/h 11.1 km/h 58 % 0.0 mm 793.0 W/m2 CLR
12:19 28.4 °C 19.4 °C 1009.0 hPa NE 9.3 km/h 9.3 km/h 58 % 0.0 mm 802.0 W/m2 CLR
12:24 28.8 °C 19.2 °C 1008.7 hPa NE 13.0 km/h 13.0 km/h 56 % 0.0 mm 812.0 W/m2 CLR
12:29 29.0 °C 19.3 °C 1008.7 hPa NE 6.4 km/h 6.4 km/h 56 % 0.0 mm 817.0 W/m2 CLR
12:34 29.3 °C 19.6 °C 1008.7 hPa NNE 7.4 km/h 7.4 km/h 56 % 0.0 mm 826.0 W/m2 CLR
12:39 29.7 °C 19.7 °C 1008.4 hPa NNE 14.8 km/h 14.8 km/h 55 % 0.0 mm 831.0 W/m2 CLR
12:44 29.8 °C 19.8 °C 1008.4 hPa ENE 11.1 km/h 11.1 km/h 55 % 0.0 mm 840.0 W/m2 CLR
12:45 29.9 °C 19.9 °C 1008.4 hPa NE 11.1 km/h 11.1 km/h 55 % 0.0 mm 840.0 W/m2 CLR
12:50 30.2 °C 19.9 °C 1008.4 hPa NE 11.1 km/h 11.1 km/h 54 % 0.0 mm 846.0 W/m2 CLR
12:55 30.6 °C 20.2 °C 1008.0 hPa NE 9.7 km/h 9.7 km/h 54 % 0.0 mm 858.0 W/m2 CLR
13:00 30.9 °C 20.6 °C 1008.0 hPa NE 14.5 km/h 14.5 km/h 54 % 0.0 mm 863.0 W/m2 CLR
13:05 31.3 °C 20.6 °C 1008.0 hPa ENE 5.6 km/h   53 % 0.0 mm 863.0 W/m2 CLR
13:10 31.4 °C 20.7 °C 1008.0 hPa NNE 12.9 km/h 12.9 km/h 53 % 0.0 mm 868.0 W/m2 CLR
13:15 31.6 °C 20.5 °C 1007.7 hPa NE 12.9 km/h 12.9 km/h 52 % 0.0 mm 870.0 W/m2 CLR
13:20 31.7 °C 20.6 °C 1007.7 hPa ENE 11.1 km/h 11.1 km/h 52 % 0.0 mm 877.0 W/m2 CLR
13:25 31.9 °C 20.8 °C 1007.7 hPa NE 11.3 km/h 11.3 km/h 52 % 0.0 mm 886.0 W/m2 CLR
13:30 32.3 °C 20.8 °C 1007.7 hPa NE 13.0 km/h 13.0 km/h 51 % 0.0 mm 882.0 W/m2 CLR
13:35 32.3 °C 20.9 °C 1007.3 hPa East 9.7 km/h 9.7 km/h 51 % 0.0 mm 886.0 W/m2 CLR
13:40 32.5 °C 20.7 °C 1007.3 hPa NE 16.7 km/h 16.7 km/h 50 % 0.0 mm 888.0 W/m2 CLR
13:41 32.6 °C 21.2 °C 1007.3 hPa ENE 13.0 km/h 13.0 km/h 51 % 0.0 mm 889.0 W/m2 CLR
13:46 33.0 °C 20.9 °C 1007.3 hPa ENE 5.6 km/h 5.6 km/h 49 % 0.0 mm 888.0 W/m2 CLR
13:51 33.1 °C 20.9 °C 1007.3 hPa ENE 18.5 km/h 18.5 km/h 49 % 0.0 mm 891.0 W/m2 CLR
13:56 33.5 °C 21.0 °C 1007.0 hPa East 13.0 km/h 13.0 km/h 48 % 0.0 mm 896.0 W/m2 CLR
14:01 33.7 °C 20.5 °C 1007.0 hPa ESE 13.0 km/h 13.0 km/h 46 % 0.0 mm 896.0 W/m2 CLR
14:06 33.6 °C 20.4 °C 1007.0 hPa ESE 11.1 km/h 11.1 km/h 46 % 0.0 mm 896.0 W/m2 CLR
14:11 33.9 °C 20.3 °C 1007.0 hPa ENE 13.0 km/h 13.0 km/h 45 % 0.0 mm 893.0 W/m2 CLR
14:16 34.1 °C 19.8 °C 1007.0 hPa East 16.7 km/h 16.7 km/h 43 % 0.0 mm 898.0 W/m2 CLR
14:21 34.5 °C 19.7 °C 1006.7 hPa East 14.8 km/h 14.8 km/h 42 % 0.0 mm 905.0 W/m2 CLR
14:26 34.8 °C 19.6 °C 1006.7 hPa East 16.7 km/h 16.7 km/h 41 % 0.0 mm 833.0 W/m2 CLR
14:31 35.2 °C 19.6 °C 1006.7 hPa East 18.5 km/h 18.5 km/h 40 % 0.0 mm 842.0 W/m2 CLR
14:36 35.4 °C 20.2 °C 1006.7 hPa ESE 16.7 km/h 16.7 km/h 41 % 0.0 mm 821.0 W/m2 CLR
14:41 35.7 °C 19.6 °C 1006.3 hPa ESE 19.3 km/h 19.3 km/h 39 % 0.0 mm 868.0 W/m2 CLR
14:46 35.6 °C 19.5 °C 1006.3 hPa East 20.4 km/h 20.4 km/h 39 % 0.0 mm 891.0 W/m2 CLR
14:51 35.5 °C 19.0 °C 1006.3 hPa SE 24.1 km/h 24.1 km/h 38 % 0.0 mm 889.0 W/m2 CLR
14:56 35.8 °C 13.9 °C 1006.3 hPa SSE 11.1 km/h 11.1 km/h 27 % 0.0 mm 891.0 W/m2 CLR
15:01 36.8 °C 14.2 °C 1006.3 hPa South 13.0 km/h 13.0 km/h 26 % 0.0 mm 884.0 W/m2 CLR
15:06 37.4 °C 13.4 °C 1006.3 hPa SW 27.8 km/h 27.8 km/h 24 % 0.0 mm 875.0 W/m2 CLR
15:11 37.5 °C 14.1 °C 1006.0 hPa South 22.2 km/h 22.2 km/h 25 % 0.0 mm 865.0 W/m2 CLR
15:16 37.6 °C 14.2 °C 1006.0 hPa South 24.1 km/h 24.1 km/h 25 % 0.0 mm 868.0 W/m2 CLR
15:21 37.6 °C 14.2 °C 1006.3 hPa SE 27.8 km/h 27.8 km/h 25 % 0.0 mm 798.0 W/m2 CLR
15:26 36.1 °C 18.2 °C 1006.0 hPa SE 42.6 km/h 42.6 km/h 35 % 0.0 mm 724.0 W/m2 CLR
15:31 35.7 °C 18.3 °C 1006.0 hPa SSE 24.1 km/h 24.1 km/h 36 % 0.0 mm 661.0 W/m2 CLR
15:36 35.7 °C 17.4 °C 1006.0 hPa SE 31.5 km/h 31.5 km/h 34 % 0.0 mm 816.0 W/m2 CLR
15:41 35.7 °C 17.8 °C 1006.0 hPa SE 38.9 km/h 38.9 km/h 35 % 0.0 mm 788.0 W/m2 CLR
15:46 35.6 °C 17.3 °C 1006.0 hPa East 32.2 km/h 32.2 km/h 34 % 0.0 mm 830.0 W/m2 CLR
15:51 35.6 °C 17.7 °C 1006.0 hPa ESE 31.5 km/h 31.5 km/h 35 % 0.0 mm 805.0 W/m2 CLR
15:56 35.2 °C 18.7 °C 1006.0 hPa East 24.1 km/h 24.1 km/h 38 % 0.0 mm 809.0 W/m2 CLR
16:01 35.4 °C 18.1 °C 1005.6 hPa ESE 24.1 km/h 24.1 km/h 36 % 0.0 mm 798.0 W/m2 CLR
16:06 35.6 °C 17.3 °C 1005.6 hPa ESE 31.5 km/h 31.5 km/h 34 % 0.0 mm 807.0 W/m2 CLR
16:11 35.6 °C 17.3 °C 1005.3 hPa ESE 25.9 km/h 25.9 km/h 34 % 0.0 mm 814.0 W/m2 CLR
16:16 35.5 °C 18.2 °C 1005.3 hPa SE 31.5 km/h 31.5 km/h 36 % 0.0 mm 798.0 W/m2 CLR
16:21 35.8 °C 17.0 °C 1005.3 hPa SE 40.7 km/h 40.7 km/h 33 % 0.0 mm 721.0 W/m2 CLR
16:26 35.5 °C 17.7 °C 1005.3 hPa SE 29.6 km/h 29.6 km/h 35 % 0.0 mm 784.0 W/m2 CLR
16:31 35.4 °C 16.2 °C 1005.3 hPa SE 37.0 km/h 37.0 km/h 32 % 0.0 mm 791.0 W/m2 CLR
16:36 36.2 °C 14.8 °C 1005.3 hPa SE 27.8 km/h 27.8 km/h 28 % 0.0 mm 772.0 W/m2 CLR
16:41 36.7 °C 14.6 °C 1005.3 hPa SE 27.4 km/h 27.4 km/h 27 % 0.0 mm 726.0 W/m2 CLR
16:46 36.9 °C 15.4 °C 1005.3 hPa ESE 25.9 km/h 25.9 km/h 28 % 0.0 mm 717.0 W/m2 CLR
16:51 37.0 °C 13.7 °C 1005.3 hPa ESE 25.9 km/h 25.9 km/h 25 % 0.0 mm 714.0 W/m2 CLR
16:56 36.8 °C 14.8 °C 1005.3 hPa SE 25.9 km/h 25.9 km/h 27 % 0.0 mm 698.0 W/m2 CLR
17:01 36.3 °C 14.3 °C 1005.3 hPa SSE 33.3 km/h 33.3 km/h 27 % 0.0 mm 687.0 W/m2 CLR
17:06 36.2 °C 15.3 °C 1005.3 hPa SSE 30.6 km/h 30.6 km/h 29 % 0.0 mm 666.0 W/m2 CLR
17:11 35.9 °C 16.2 °C 1005.0 hPa ESE 29.6 km/h 29.6 km/h 31 % 0.0 mm 652.0 W/m2 CLR
17:16 35.7 °C 15.9 °C 1005.0 hPa ESE 24.1 km/h 24.1 km/h 31 % 0.0 mm 636.0 W/m2 CLR
17:21 35.8 °C 15.5 °C 1005.0 hPa SE 18.5 km/h 18.5 km/h 30 % 0.0 mm 621.0 W/m2 CLR
17:27 35.8 °C 15.5 °C 1005.0 hPa ESE 20.9 km/h 20.9 km/h 30 % 0.0 mm 608.0 W/m2 CLR
17:32 35.9 °C 16.6 °C 1005.0 hPa ESE 27.4 km/h 27.4 km/h 32 % 0.0 mm 591.0 W/m2 CLR
17:37 35.7 °C 16.4 °C 1004.6 hPa ESE 13.0 km/h 13.0 km/h 32 % 0.0 mm 577.0 W/m2 CLR
17:42 35.7 °C 16.4 °C 1005.0 hPa SSE 18.5 km/h 18.5 km/h 32 % 0.0 mm 566.0 W/m2 CLR
17:47 35.6 °C 16.4 °C 1004.6 hPa SE 18.5 km/h 18.5 km/h 32 % 0.0 mm 552.0 W/m2 CLR
17:52 35.5 °C 15.8 °C 1004.6 hPa ESE 16.7 km/h 16.7 km/h 31 % 0.0 mm 541.0 W/m2 CLR
17:57 35.5 °C 16.3 °C 1005.0 hPa SE 22.2 km/h 22.2 km/h 32 % 0.0 mm 526.0 W/m2 CLR
18:02 35.4 °C 16.2 °C 1004.6 hPa SE 16.7 km/h 16.7 km/h 32 % 0.0 mm 513.0 W/m2 CLR
18:07 35.3 °C 16.1 °C 1004.6 hPa SE 20.4 km/h 20.4 km/h 32 % 0.0 mm 499.0 W/m2 CLR
18:12 35.3 °C 15.6 °C 1004.6 hPa ESE 13.0 km/h 13.0 km/h 31 % 0.0 mm 482.0 W/m2 CLR
18:17 35.5 °C 15.3 °C 1004.6 hPa SE 25.9 km/h 25.9 km/h 30 % 0.0 mm 466.0 W/m2 CLR
18:22 35.5 °C 15.3 °C 1004.6 hPa SE 20.4 km/h 20.4 km/h 30 % 0.0 mm 448.0 W/m2 CLR
18:27 35.5 °C 15.3 °C 1004.6 hPa ESE 20.9 km/h 20.9 km/h 30 % 0.0 mm 431.0 W/m2 CLR
18:32 35.4 °C 15.2 °C 1004.6 hPa SE 17.7 km/h 17.7 km/h 30 % 0.0 mm 415.0 W/m2 CLR
18:37 35.4 °C 15.7 °C 1004.6 hPa ESE 22.2 km/h 22.2 km/h 31 % 0.0 mm 397.0 W/m2 CLR
18:42 35.3 °C 16.1 °C 1004.6 hPa SSE 18.5 km/h 18.5 km/h 32 % 0.0 mm 385.0 W/m2 CLR
18:47 35.3 °C 16.1 °C 1004.6 hPa SE 13.0 km/h 13.0 km/h 32 % 0.0 mm 367.0 W/m2 CLR
18:52 35.1 °C 15.9 °C 1004.3 hPa South 20.4 km/h 20.4 km/h 32 % 0.0 mm 352.0 W/m2 CLR
18:57 35.2 °C 12.8 °C 1004.3 hPa South 24.1 km/h 24.1 km/h 26 % 0.0 mm 336.0 W/m2 CLR
19:02 35.3 °C 12.9 °C 1004.3 hPa SSW 24.1 km/h 24.1 km/h 26 % 0.0 mm 323.0 W/m2 CLR
19:07 35.2 °C 14.5 °C 1004.3 hPa South 18.5 km/h 18.5 km/h 29 % 0.0 mm 306.0 W/m2 CLR
19:12 35.0 °C 12.6 °C 1004.3 hPa South 31.5 km/h 31.5 km/h 26 % 0.0 mm 288.0 W/m2 CLR
19:17 35.1 °C 13.3 °C 1004.3 hPa SSE 31.5 km/h 31.5 km/h 27 % 0.0 mm 276.0 W/m2 CLR
19:22 35.1 °C 12.1 °C 1004.3 hPa South 33.3 km/h 33.3 km/h 25 % 0.0 mm 257.0 W/m2 CLR
19:27 35.0 °C 12.6 °C 1004.3 hPa South 29.6 km/h 29.6 km/h 26 % 0.0 mm 237.0 W/m2 CLR
19:32 34.9 °C 13.1 °C 1004.3 hPa South 31.5 km/h 31.5 km/h 27 % 0.0 mm 223.0 W/m2 CLR
19:37 34.8 °C 12.4 °C 1004.3 hPa SSE 31.5 km/h 31.5 km/h 26 % 0.0 mm 211.0 W/m2 CLR
19:42 34.7 °C 12.3 °C 1004.3 hPa SSE 35.2 km/h 35.2 km/h 26 % 0.0 mm 193.0 W/m2 CLR
19:47 34.6 °C 12.8 °C 1004.3 hPa South 33.3 km/h 33.3 km/h 27 % 0.0 mm 176.0 W/m2 CLR
19:52 34.5 °C 12.8 °C 1004.3 hPa SSE 38.9 km/h 38.9 km/h 27 % 0.0 mm 156.0 W/m2 CLR
19:58 34.4 °C 12.7 °C 1004.3 hPa SE 22.2 km/h 22.2 km/h 27 % 0.0 mm 141.0 W/m2 CLR
20:03 34.3 °C 12.7 °C 1004.3 hPa South 24.1 km/h 24.1 km/h 27 % 0.0 mm 123.0 W/m2 CLR
20:08 34.1 °C 13.0 °C 1004.3 hPa South 35.2 km/h 35.2 km/h 28 % 0.0 mm 107.0 W/m2 CLR
20:13 33.9 °C 12.9 °C 1004.3 hPa SSE 30.6 km/h 30.6 km/h 28 % 0.0 mm 90.0 W/m2 CLR
20:18 33.8 °C 12.7 °C 1004.3 hPa South 35.2 km/h 35.2 km/h 28 % 0.0 mm 74.0 W/m2 FEW
20:23 33.6 °C 13.1 °C 1004.6 hPa SSW 29.6 km/h 29.6 km/h 29 % 0.0 mm 35.0 W/m2 BKN
20:28 33.4 °C 12.9 °C 1004.3 hPa SSE 24.1 km/h 24.1 km/h 29 % 0.0 mm 28.0 W/m2 BKN
20:33 33.3 °C 12.8 °C 1004.6 hPa South 29.6 km/h 29.6 km/h 29 % 0.0 mm 25.0 W/m2 BKN
20:38 33.2 °C 12.7 °C 1004.6 hPa SSE 31.5 km/h 31.5 km/h 29 % 0.0 mm 23.0 W/m2 BKN
20:43 33.1 °C 12.7 °C 1004.6 hPa SSE 31.5 km/h 31.5 km/h 29 % 0.0 mm 21.0 W/m2 BKN
20:48 32.9 °C 12.6 °C 1004.6 hPa South 27.8 km/h 27.8 km/h 29 % 0.0 mm 21.0 W/m2 BKN
20:53 32.8 °C 12.4 °C 1004.6 hPa South 33.3 km/h 33.3 km/h 29 % 0.0 mm 19.0 W/m2 BKN
20:58 32.8 °C 12.4 °C 1004.6 hPa South 31.5 km/h 31.5 km/h 29 % 0.0 mm 16.0 W/m2 BKN
21:03 32.6 °C 12.8 °C 1004.6 hPa South 16.7 km/h 16.7 km/h 30 % 0.0 mm 12.0 W/m2 BKN
21:08 32.3 °C 13.1 °C 1004.6 hPa SE 16.7 km/h 16.7 km/h 31 % 0.0 mm 7.0 W/m2 BKN
21:13 32.1 °C 13.3 °C 1004.6 hPa SSE 18.5 km/h 18.5 km/h 32 % 0.0 mm 0.0 W/m2 OVC
21:18 31.9 °C 13.2 °C 1004.6 hPa South 20.4 km/h 20.4 km/h 32 % 0.0 mm 0.0 W/m2 OVC
21:23 31.8 °C 12.6 °C 1005.0 hPa South 18.5 km/h 18.5 km/h 31 % 0.0 mm 0.0 W/m2 OVC
21:28 31.7 °C 12.9 °C 1005.0 hPa South 14.8 km/h 14.8 km/h 32 % 0.0 mm 0.0 W/m2 CLR
21:33 31.6 °C 12.4 °C 1005.0 hPa South 17.7 km/h 17.7 km/h 31 % 0.0 mm 0.0 W/m2 CLR
21:38 31.5 °C 12.3 °C 1005.0 hPa SSE 14.8 km/h 14.8 km/h 31 % 0.0 mm 0.0 W/m2 CLR
21:43 31.4 °C 12.7 °C 1005.3 hPa South 9.3 km/h 9.3 km/h 32 % 0.0 mm 0.0 W/m2 CLR
21:48 31.2 °C 12.6 °C 1005.3 hPa SE 9.3 km/h 9.3 km/h 32 % 0.0 mm 0.0 W/m2 CLR
21:53 31.2 °C 12.1 °C 1005.6 hPa SSE 7.4 km/h 7.4 km/h 31 % 0.0 mm 0.0 W/m2 CLR
21:58 31.2 °C 12.1 °C 1005.6 hPa Calm     31 % 0.0 mm 0.0 W/m2 CLR
22:03 30.8 °C 14.4 °C 1005.6 hPa Calm     37 % 0.0 mm 0.0 W/m2 CLR
22:08 30.4 °C 14.1 °C 1006.0 hPa Calm     37 % 0.0 mm 0.0 W/m2 CLR
22:13 30.0 °C 13.7 °C 1006.0 hPa Calm     37 % 0.0 mm 0.0 W/m2 CLR
22:18 29.7 °C 13.8 °C 1006.0 hPa ESE 3.7 km/h 3.7 km/h 38 % 0.0 mm 0.0 W/m2 CLR
22:23 29.6 °C 13.7 °C 1006.0 hPa SE 9.7 km/h 9.7 km/h 38 % 0.0 mm 0.0 W/m2 CLR
22:28 29.4 °C 14.0 °C 1006.0 hPa SE 9.3 km/h 9.3 km/h 39 % 0.0 mm 0.0 W/m2 CLR
22:33 29.3 °C 13.9 °C 1006.3 hPa SSE 1.9 km/h 1.9 km/h 39 % 0.0 mm 0.0 W/m2 CLR
22:38 29.2 °C 14.2 °C 1006.3 hPa SE 13.0 km/h 13.0 km/h 40 % 0.0 mm 0.0 W/m2 CLR
22:43 29.1 °C 14.5 °C 1006.3 hPa Calm     41 % 0.0 mm 0.0 W/m2 CLR
22:48 29.0 °C 14.4 °C 1006.3 hPa SSE 3.2 km/h 3.2 km/h 41 % 0.0 mm 0.0 W/m2 CLR
22:53 28.9 °C 14.7 °C 1006.3 hPa ESE 9.3 km/h 9.3 km/h 42 % 0.0 mm 0.0 W/m2 CLR
22:58 28.8 °C 14.6 °C 1006.7 hPa Calm     42 % 0.0 mm 0.0 W/m2 CLR
23:03 28.7 °C 14.9 °C 1006.7 hPa ESE 6.4 km/h 6.4 km/h 43 % 0.0 mm 0.0 W/m2 CLR
23:08 28.7 °C 15.2 °C 1006.7 hPa ESE 7.4 km/h 7.4 km/h 44 % 0.0 mm 0.0 W/m2 CLR
23:13 28.6 °C 15.2 °C 1006.7 hPa SE 8.0 km/h 8.0 km/h 44 % 0.0 mm 0.0 W/m2 CLR
23:18 28.5 °C 15.1 °C 1006.7 hPa East 3.7 km/h   44 % 0.0 mm 0.0 W/m2 CLR
23:23 28.4 °C 14.9 °C 1007.0 hPa Calm     44 % 0.0 mm 0.0 W/m2 CLR
23:28 28.3 °C 15.3 °C 1007.0 hPa Calm     45 % 0.0 mm 0.0 W/m2 CLR
23:33 28.2 °C 15.5 °C 1007.0 hPa Calm     46 % 0.0 mm 0.0 W/m2 CLR
23:34 28.2 °C 15.4 °C 1007.0 hPa Calm     46 % 0.0 mm 0.0 W/m2 CLR
23:39 27.9 °C 15.9 °C 1007.0 hPa Calm     48 % 0.0 mm 0.0 W/m2 CLR
23:44 27.7 °C 16.0 °C 1007.0 hPa Calm     49 % 0.0 mm 0.0 W/m2 CLR
23:49 27.5 °C 16.2 °C 1007.0 hPa Calm     50 % 0.0 mm 0.0 W/m2 CLR
23:54 27.3 °C 16.0 °C 1007.0 hPa Calm     50 % 0.0 mm 0.0 W/m2 CLR
23:59 27.1 °C 16.1 °C 1007.0 hPa Calm     51 % 0.0 mm 0.0 W/m2 CLR
Lo Temps de Massalio
Compliments of Weather Underground - 1.25 mb